Time;durP1;ratioP1;P1;durP2;ratioP2;P2;SDS_P1;SDS_P2;PMS_P1;PMS_P2;Temp;Humidity;BMP_temperature;BMP_pressure;BME280_temperature;BME280_humidity;BME280_pressure;Samples;Min_cycle;Max_cycle;Signal;HPM_P1;HPM_P2
2021/05/07 00:01:42;;;;;;;15.10;13.50;;;;;;;;;;5096733;28;20209;-73
2021/05/07 00:04:09;;;;;;;14.85;13.10;;;;;;;;;;5096277;28;20301;-72
2021/05/07 00:06:36;;;;;;;18.52;12.48;;;;;;;;;;5096290;28;20286;-72
2021/05/07 00:09:05;;;;;;;16.52;13.43;;;;;;;;;;5096254;28;20198;-73
2021/05/07 00:11:34;;;;;;;15.57;13.27;;;;;;;;;;5096806;28;20372;-73
2021/05/07 00:14:02;;;;;;;18.95;13.13;;;;;;;;;;5096502;28;20206;-71
2021/05/07 00:16:28;;;;;;;16.52;12.48;;;;;;;;;;5096444;28;20228;-71
2021/05/07 00:18:55;;;;;;;16.25;11.98;;;;;;;;;;5096228;28;20670;-70
2021/05/07 00:21:22;;;;;;;13.35;11.93;;;;;;;;;;5096290;28;20709;-71
2021/05/07 00:23:49;;;;;;;15.48;13.70;;;;;;;;;;5096194;28;20267;-71
2021/05/07 00:26:16;;;;;;;17.00;12.10;;;;;;;;;;5096657;28;20189;-73
2021/05/07 00:28:43;;;;;;;17.33;14.07;;;;;;;;;;5096330;28;20199;-72
2021/05/07 00:31:10;;;;;;;14.00;12.60;;;;;;;;;;5096154;28;20294;-71
2021/05/07 00:33:37;;;;;;;20.00;14.68;;;;;;;;;;5095797;28;20673;-71
2021/05/07 00:36:04;;;;;;;15.18;13.57;;;;;;;;;;5096440;28;20200;-71
2021/05/07 00:38:31;;;;;;;19.65;14.80;;;;;;;;;;5095657;28;20194;-71
2021/05/07 00:40:57;;;;;;;17.50;14.13;;;;;;;;;;5095854;28;20226;-72
2021/05/07 00:43:24;;;;;;;17.60;14.10;;;;;;;;;;5095557;28;20219;-71
2021/05/07 00:45:52;;;;;;;19.60;14.75;;;;;;;;;;5095954;28;20197;-71
2021/05/07 00:48:19;;;;;;;18.25;15.00;;;;;;;;;;5095930;28;20195;-72
2021/05/07 00:50:47;;;;;;;19.20;14.30;;;;;;;;;;5095711;28;20194;-72
2021/05/07 00:53:15;;;;;;;16.17;13.05;;;;;;;;;;5095706;28;20193;-71
2021/05/07 00:55:42;;;;;;;18.77;16.40;;;;;;;;;;5095579;28;20614;-71
2021/05/07 00:58:08;;;;;;;18.60;15.20;;;;;;;;;;5095626;28;20190;-70
2021/05/07 01:00:35;;;;;;;17.73;15.00;;;;;;;;;;5095503;28;20198;-72
2021/05/07 01:03:03;;;;;;;17.70;14.55;;;;;;;;;;5095546;28;20566;-71
2021/05/07 01:05:30;;;;;;;16.30;11.50;;;;;;;;;;5096038;28;20285;-71
2021/05/07 01:07:57;;;;;;;15.50;13.25;;;;;;;;;;5095624;28;20199;-71
2021/05/07 01:10:24;;;;;;;20.55;15.80;;;;;;;;;;5095243;28;20711;-72
2021/05/07 01:12:51;;;;;;;16.55;13.68;;;;;;;;;;5095039;28;20654;-71
2021/05/07 01:15:19;;;;;;;20.60;14.30;;;;;;;;;;5095236;28;20193;-71
2021/05/07 01:17:46;;;;;;;16.17;14.23;;;;;;;;;;5094953;28;20194;-71
2021/05/07 01:20:14;;;;;;;20.05;13.35;;;;;;;;;;5095412;28;20643;-70
2021/05/07 01:22:41;;;;;;;16.08;12.32;;;;;;;;;;5095270;28;20198;-71
2021/05/07 01:25:09;;;;;;;18.50;14.50;;;;;;;;;;5095236;28;20195;-70
2021/05/07 01:27:38;;;;;;;13.57;12.18;;;;;;;;;;5095222;28;20197;-70
2021/05/07 01:30:09;;;;;;;12.85;11.60;;;;;;;;;;5094961;28;20201;-70
2021/05/07 01:32:36;;;;;;;15.07;11.95;;;;;;;;;;5094901;28;20271;-70
2021/05/07 01:35:04;;;;;;;15.23;10.90;;;;;;;;;;5094847;28;20193;-70
2021/05/07 01:37:32;;;;;;;13.23;10.73;;;;;;;;;;5094525;28;20190;-70
2021/05/07 01:39:58;;;;;;;13.15;10.05;;;;;;;;;;5094733;28;20196;-70
2021/05/07 01:42:25;;;;;;;20.17;11.38;;;;;;;;;;5094399;28;20192;-70
2021/05/07 01:44:52;;;;;;;12.75;10.85;;;;;;;;;;5094384;28;20647;-70
2021/05/07 01:47:18;;;;;;;13.55;11.73;;;;;;;;;;5094329;28;20194;-70
2021/05/07 01:49:45;;;;;;;13.57;11.32;;;;;;;;;;5095419;28;20198;-70
2021/05/07 01:52:12;;;;;;;16.00;12.70;;;;;;;;;;5094559;28;20206;-70
2021/05/07 01:54:39;;;;;;;14.88;11.13;;;;;;;;;;5094455;28;20194;-70
2021/05/07 01:57:06;;;;;;;13.98;10.98;;;;;;;;;;5095147;28;20201;-70
2021/05/07 01:59:33;;;;;;;15.50;11.75;;;;;;;;;;5094422;28;20194;-70
2021/05/07 02:01:59;;;;;;;19.85;12.50;;;;;;;;;;5094347;28;20245;-70
2021/05/07 02:04:26;;;;;;;17.58;12.27;;;;;;;;;;5094397;28;20221;-70
2021/05/07 02:06:53;;;;;;;18.60;12.43;;;;;;;;;;5093379;28;20666;-70
2021/05/07 02:09:20;;;;;;;14.05;11.70;;;;;;;;;;5093947;28;20722;-70
2021/05/07 02:11:47;;;;;;;14.73;12.10;;;;;;;;;;5094669;28;20250;-70
2021/05/07 02:14:14;;;;;;;16.48;12.90;;;;;;;;;;5094332;28;20197;-70
2021/05/07 02:16:41;;;;;;;17.63;13.15;;;;;;;;;;5094129;28;20200;-70
2021/05/07 02:19:08;;;;;;;17.65;12.70;;;;;;;;;;5094588;28;20530;-70
2021/05/07 02:21:35;;;;;;;20.05;15.10;;;;;;;;;;5093904;28;20650;-70
2021/05/07 02:24:02;;;;;;;19.38;14.02;;;;;;;;;;5093626;28;20338;-70
2021/05/07 02:26:28;;;;;;;21.92;14.88;;;;;;;;;;5093739;28;20666;-70
2021/05/07 02:28:56;;;;;;;21.60;15.07;;;;;;;;;;5093969;28;20214;-70
2021/05/07 02:31:23;;;;;;;23.77;16.48;;;;;;;;;;5093590;28;20204;-70
2021/05/07 02:33:49;;;;;;;22.25;18.08;;;;;;;;;;5093928;28;20284;-70
2021/05/07 02:36:17;;;;;;;20.10;15.00;;;;;;;;;;5093884;28;20194;-70
2021/05/07 02:38:43;;;;;;;24.10;16.17;;;;;;;;;;5093978;28;20560;-70
2021/05/07 02:41:10;;;;;;;23.92;14.93;;;;;;;;;;5093809;28;20217;-70
2021/05/07 02:43:37;;;;;;;19.90;14.30;;;;;;;;;;5093396;28;20302;-70
2021/05/07 02:46:04;;;;;;;20.67;15.75;;;;;;;;;;5094234;28;20347;-70
2021/05/07 02:48:31;;;;;;;26.77;19.58;;;;;;;;;;5093937;28;20627;-70
2021/05/07 02:50:58;;;;;;;24.27;16.98;;;;;;;;;;5093663;28;20194;-70
2021/05/07 02:53:25;;;;;;;26.95;19.27;;;;;;;;;;5093345;28;20288;-70
2021/05/07 02:55:51;;;;;;;32.42;19.60;;;;;;;;;;5093341;28;20198;-70
2021/05/07 02:58:18;;;;;;;30.23;19.23;;;;;;;;;;5093716;28;20204;-70
2021/05/07 03:00:45;;;;;;;30.25;20.30;;;;;;;;;;5093596;28;20553;-71
2021/05/07 03:03:12;;;;;;;25.98;19.17;;;;;;;;;;5094046;28;20235;-70
2021/05/07 03:05:39;;;;;;;31.73;19.23;;;;;;;;;;5093239;28;20203;-70
2021/05/07 03:08:06;;;;;;;31.17;20.27;;;;;;;;;;5094192;28;20201;-70
2021/05/07 03:10:33;;;;;;;27.90;18.15;;;;;;;;;;5093173;28;20201;-70
2021/05/07 03:12:59;;;;;;;31.48;21.45;;;;;;;;;;5093156;28;20201;-70
2021/05/07 03:15:28;;;;;;;32.00;22.77;;;;;;;;;;5093449;28;20219;-70
2021/05/07 03:17:55;;;;;;;32.50;22.15;;;;;;;;;;5093597;28;20197;-70
2021/05/07 03:20:22;;;;;;;31.38;20.90;;;;;;;;;;5097142;28;20200;-70
2021/05/07 03:22:49;;;;;;;31.25;22.23;;;;;;;;;;5097002;28;20289;-70
2021/05/07 03:25:16;;;;;;;36.85;24.23;;;;;;;;;;5097424;28;20584;-70
2021/05/07 03:27:43;;;;;;;29.85;21.80;;;;;;;;;;5097608;28;20209;-71
2021/05/07 03:30:12;;;;;;;34.55;22.17;;;;;;;;;;5096947;28;20289;-70
2021/05/07 03:32:39;;;;;;;36.75;22.25;;;;;;;;;;5097196;28;20284;-70
2021/05/07 03:35:06;;;;;;;35.15;23.00;;;;;;;;;;5096900;28;20196;-71
2021/05/07 03:37:34;;;;;;;42.35;24.15;;;;;;;;;;5096846;28;20201;-70
2021/05/07 03:40:00;;;;;;;37.47;22.75;;;;;;;;;;5097026;28;20193;-71
2021/05/07 03:42:27;;;;;;;39.17;24.23;;;;;;;;;;5096792;28;20189;-70
2021/05/07 03:44:54;;;;;;;38.35;23.77;;;;;;;;;;5097706;28;20221;-70
2021/05/07 03:47:21;;;;;;;36.67;24.27;;;;;;;;;;5096555;28;20235;-70
2021/05/07 03:49:47;;;;;;;40.08;25.70;;;;;;;;;;5097125;28;20190;-70
2021/05/07 03:52:14;;;;;;;36.17;24.77;;;;;;;;;;5096518;28;20197;-70
2021/05/07 03:54:44;;;;;;;40.85;27.00;;;;;;;;;;5096519;28;20650;-70
2021/05/07 03:57:11;;;;;;;42.35;25.65;;;;;;;;;;5096536;28;20182;-70
2021/05/07 03:59:38;;;;;;;34.78;24.10;;;;;;;;;;5096706;28;20191;-70
2021/05/07 04:02:04;;;;;;;37.65;25.58;;;;;;;;;;5096807;28;20200;-70
2021/05/07 04:04:33;;;;;;;37.50;26.10;;;;;;;;;;5096572;28;20228;-70
2021/05/07 04:07:00;;;;;;;44.00;26.50;;;;;;;;;;5096618;28;20197;-70
2021/05/07 04:09:29;;;;;;;40.20;27.55;;;;;;;;;;5096219;28;20655;-71
2021/05/07 04:11:59;;;;;;;43.58;27.15;;;;;;;;;;5096642;28;20197;-70
2021/05/07 04:14:26;;;;;;;32.25;24.45;;;;;;;;;;5096124;28;20182;-71
2021/05/07 04:16:52;;;;;;;46.72;29.73;;;;;;;;;;5096350;28;20216;-70
2021/05/07 04:19:19;;;;;;;41.38;28.77;;;;;;;;;;5096708;28;20200;-71
2021/05/07 04:21:46;;;;;;;40.60;27.30;;;;;;;;;;5096817;28;20193;-71
2021/05/07 04:24:12;;;;;;;40.15;26.77;;;;;;;;;;5096192;28;20340;-71
2021/05/07 04:26:40;;;;;;;39.78;27.67;;;;;;;;;;5096322;28;20193;-71
2021/05/07 04:29:08;;;;;;;42.88;27.70;;;;;;;;;;5096161;28;20272;-70
2021/05/07 04:31:34;;;;;;;42.83;26.15;;;;;;;;;;5108294;28;20192;-70
2021/05/07 04:34:01;;;;;;;40.60;27.05;;;;;;;;;;5096615;28;20274;-70
2021/05/07 04:36:28;;;;;;;45.90;28.38;;;;;;;;;;5096044;28;20193;-70
2021/05/07 04:38:56;;;;;;;37.55;24.65;;;;;;;;;;5095936;28;20238;-70
2021/05/07 04:41:23;;;;;;;41.03;27.85;;;;;;;;;;5095692;28;20225;-70
2021/05/07 04:43:50;;;;;;;38.45;27.17;;;;;;;;;;5095831;28;20213;-70
2021/05/07 04:46:17;;;;;;;41.78;26.60;;;;;;;;;;5095761;28;20289;-70
2021/05/07 04:48:46;;;;;;;42.50;27.75;;;;;;;;;;5095790;28;20300;-70
2021/05/07 04:51:13;;;;;;;40.75;28.75;;;;;;;;;;5095710;28;20197;-70
2021/05/07 04:53:40;;;;;;;41.13;28.13;;;;;;;;;;5095405;28;20197;-70
2021/05/07 04:56:07;;;;;;;48.22;28.15;;;;;;;;;;5095716;28;20190;-71
2021/05/07 04:58:33;;;;;;;38.22;26.83;;;;;;;;;;5096178;28;20197;-70
2021/05/07 05:01:00;;;;;;;43.53;26.67;;;;;;;;;;5094969;28;20285;-70
2021/05/07 05:03:27;;;;;;;37.72;26.70;;;;;;;;;;5095267;28;20267;-70
2021/05/07 05:05:54;;;;;;;40.10;28.27;;;;;;;;;;5095402;28;20208;-72
2021/05/07 05:08:21;;;;;;;44.72;29.52;;;;;;;;;;5095017;28;20202;-70
2021/05/07 05:10:48;;;;;;;40.92;29.55;;;;;;;;;;5095397;28;20198;-71
2021/05/07 05:13:15;;;;;;;48.25;30.52;;;;;;;;;;5095301;28;20205;-71
2021/05/07 05:15:42;;;;;;;47.13;31.20;;;;;;;;;;5094873;28;20189;-70
2021/05/07 05:18:08;;;;;;;43.33;30.23;;;;;;;;;;5094817;28;20232;-70
2021/05/07 05:20:36;;;;;;;41.60;29.15;;;;;;;;;;5094984;28;20611;-70
2021/05/07 05:23:03;;;;;;;43.25;28.48;;;;;;;;;;5098815;28;20202;-70
2021/05/07 05:25:29;;;;;;;41.78;27.00;;;;;;;;;;5111173;28;20201;-70
2021/05/07 05:27:56;;;;;;;26.50;19.25;;;;;;;;;;5115135;28;20204;-70
2021/05/07 05:30:23;;;;;;;37.15;26.73;;;;;;;;;;5114409;28;20197;-70
2021/05/07 05:32:50;;;;;;;44.65;27.98;;;;;;;;;;5114608;28;20281;-69
2021/05/07 05:35:17;;;;;;;44.22;29.80;;;;;;;;;;5114438;28;20225;-70
2021/05/07 05:37:46;;;;;;;33.55;24.63;;;;;;;;;;5114910;28;20246;-70
2021/05/07 05:40:13;;;;;;;38.88;26.80;;;;;;;;;;5114355;28;20237;-69
2021/05/07 05:42:40;;;;;;;35.08;25.17;;;;;;;;;;5113784;28;20182;-70
2021/05/07 05:45:07;;;;;;;36.22;23.25;;;;;;;;;;5115156;28;20224;-65
2021/05/07 05:47:34;;;;;;;32.28;23.05;;;;;;;;;;5114633;28;20197;-73
2021/05/07 05:50:01;;;;;;;30.58;23.17;;;;;;;;;;5114246;28;20215;-72
2021/05/07 05:52:27;;;;;;;28.77;19.58;;;;;;;;;;5114227;28;20668;-72
2021/05/07 05:54:55;;;;;;;28.55;19.05;;;;;;;;;;5115183;28;20209;-72
2021/05/07 05:57:21;;;;;;;27.70;19.80;;;;;;;;;;5114355;28;20288;-73
2021/05/07 05:59:49;;;;;;;28.85;20.92;;;;;;;;;;5114453;28;20246;-72
2021/05/07 06:02:16;;;;;;;27.08;18.92;;;;;;;;;;5113994;28;20657;-73
2021/05/07 06:04:43;;;;;;;27.27;19.73;;;;;;;;;;5114155;28;20218;-73
2021/05/07 06:07:10;;;;;;;28.42;20.95;;;;;;;;;;5114120;28;20243;-73
2021/05/07 06:09:36;;;;;;;28.58;18.50;;;;;;;;;;5114078;28;20315;-72
2021/05/07 06:12:07;;;;;;;24.60;16.98;;;;;;;;;;5114235;28;20662;-73
2021/05/07 06:14:34;;;;;;;24.27;17.08;;;;;;;;;;5114247;28;20186;-72
2021/05/07 06:17:00;;;;;;;25.02;18.67;;;;;;;;;;5114400;28;20205;-73
2021/05/07 06:19:27;;;;;;;20.83;16.60;;;;;;;;;;5114819;28;20195;-73
2021/05/07 06:21:54;;;;;;;24.73;18.90;;;;;;;;;;5114232;28;20305;-73
2021/05/07 06:24:21;;;;;;;22.38;15.55;;;;;;;;;;5113551;28;20270;-73
2021/05/07 06:26:47;;;;;;;23.13;18.85;;;;;;;;;;5113671;28;20193;-73
2021/05/07 06:29:15;;;;;;;22.33;16.70;;;;;;;;;;5113719;28;20197;-73
2021/05/07 06:31:42;;;;;;;25.17;18.05;;;;;;;;;;5114144;28;20190;-73
2021/05/07 06:34:08;;;;;;;22.95;17.35;;;;;;;;;;5113518;28;20196;-73
2021/05/07 06:36:35;;;;;;;24.50;17.50;;;;;;;;;;5113780;28;20221;-73
2021/05/07 06:39:02;;;;;;;15.13;12.48;;;;;;;;;;5113472;28;20205;-72
2021/05/07 06:41:29;;;;;;;20.65;15.10;;;;;;;;;;5114028;28;20261;-74
2021/05/07 06:43:55;;;;;;;24.08;15.48;;;;;;;;;;5114133;28;20292;-73
2021/05/07 06:46:23;;;;;;;18.90;15.18;;;;;;;;;;5113516;28;20624;-73
2021/05/07 06:48:50;;;;;;;19.45;14.60;;;;;;;;;;5113216;28;20197;-72
2021/05/07 06:51:17;;;;;;;17.30;13.80;;;;;;;;;;5113520;28;20629;-72
2021/05/07 06:53:44;;;;;;;17.35;14.00;;;;;;;;;;5112897;28;20676;-73
2021/05/07 06:56:10;;;;;;;17.63;14.02;;;;;;;;;;5113254;28;20280;-71
2021/05/07 06:58:39;;;;;;;17.30;12.45;;;;;;;;;;5113540;28;20277;-73
2021/05/07 07:01:06;;;;;;;17.90;13.48;;;;;;;;;;5113459;28;20271;-72
2021/05/07 07:03:34;;;;;;;10.65;9.38;;;;;;;;;;5113325;28;20221;-72
2021/05/07 07:06:00;;;;;;;15.13;11.38;;;;;;;;;;5112968;28;20284;-72
2021/05/07 07:08:27;;;;;;;15.15;12.85;;;;;;;;;;5113274;28;20280;-71
2021/05/07 07:10:54;;;;;;;13.52;11.80;;;;;;;;;;5113054;28;20605;-73
2021/05/07 07:13:21;;;;;;;8.55;6.35;;;;;;;;;;5113210;28;20230;-72
2021/05/07 07:15:47;;;;;;;17.80;11.90;;;;;;;;;;5113406;28;20578;-72
2021/05/07 07:18:18;;;;;;;13.35;10.80;;;;;;;;;;5112897;28;20375;-71
2021/05/07 07:20:46;;;;;;;14.52;12.23;;;;;;;;;;5113426;28;20195;-71
2021/05/07 07:23:13;;;;;;;12.60;11.30;;;;;;;;;;5113130;28;20287;-71
2021/05/07 07:25:39;;;;;;;9.90;8.68;;;;;;;;;;5112989;28;20614;-72
2021/05/07 07:28:06;;;;;;;10.70;9.20;;;;;;;;;;5112984;28;20322;-71
2021/05/07 07:30:33;;;;;;;9.52;7.45;;;;;;;;;;5113115;28;20203;-71
2021/05/07 07:33:00;;;;;;;9.20;7.95;;;;;;;;;;5113528;28;20225;-72
2021/05/07 07:35:27;;;;;;;9.55;8.55;;;;;;;;;;5113356;28;20654;-72
2021/05/07 07:37:55;;;;;;;9.35;7.22;;;;;;;;;;5112757;28;20228;-72
2021/05/07 07:40:21;;;;;;;8.82;6.88;;;;;;;;;;5112650;28;20742;-71
2021/05/07 07:42:48;;;;;;;9.32;8.30;;;;;;;;;;5112827;28;20204;-71
2021/05/07 07:45:16;;;;;;;7.20;4.85;;;;;;;;;;5113545;28;20304;-70
2021/05/07 07:47:43;;;;;;;8.50;7.68;;;;;;;;;;5112758;28;20193;-71
2021/05/07 07:50:10;;;;;;;6.15;5.63;;;;;;;;;;5112728;28;20193;-71
2021/05/07 07:52:38;;;;;;;8.45;7.65;;;;;;;;;;5112670;28;20193;-72
2021/05/07 07:55:07;;;;;;;6.15;5.10;;;;;;;;;;5112855;28;20538;-71
2021/05/07 07:57:34;;;;;;;8.80;7.13;;;;;;;;;;5113327;28;20308;-71
2021/05/07 08:00:00;;;;;;;8.90;7.10;;;;;;;;;;5112999;28;20194;-70
2021/05/07 08:02:29;;;;;;;7.45;6.57;;;;;;;;;;5113372;28;20598;-71
2021/05/07 08:04:56;;;;;;;6.20;5.60;;;;;;;;;;5113459;28;20227;-70
2021/05/07 08:07:22;;;;;;;6.07;5.30;;;;;;;;;;5116149;28;20229;-70
2021/05/07 08:09:49;;;;;;;10.30;6.25;;;;;;;;;;5116354;28;20360;-71
2021/05/07 08:12:17;;;;;;;6.60;5.97;;;;;;;;;;5116921;28;20582;-70
2021/05/07 08:14:43;;;;;;;7.30;6.43;;;;;;;;;;5116286;28;20285;-71
2021/05/07 08:17:10;;;;;;;5.53;4.88;;;;;;;;;;5116049;28;20235;-71
2021/05/07 08:19:37;;;;;;;6.85;6.15;;;;;;;;;;5116587;28;20199;-70
2021/05/07 08:22:04;;;;;;;6.43;5.80;;;;;;;;;;5116157;28;20198;-71
2021/05/07 08:24:31;;;;;;;5.07;4.55;;;;;;;;;;5116250;28;20304;-71
2021/05/07 08:26:59;;;;;;;5.15;4.43;;;;;;;;;;5115676;28;20193;-71
2021/05/07 08:29:26;;;;;;;5.97;5.38;;;;;;;;;;5115736;28;20197;-71
2021/05/07 08:31:53;;;;;;;12.13;6.05;;;;;;;;;;5115650;28;20247;-71
2021/05/07 08:34:21;;;;;;;6.22;4.57;;;;;;;;;;5116267;28;20239;-70
2021/05/07 08:36:48;;;;;;;6.57;5.28;;;;;;;;;;5115588;28;20258;-70
2021/05/07 08:39:14;;;;;;;6.30;5.70;;;;;;;;;;5115632;28;20202;-71
2021/05/07 08:41:43;;;;;;;5.30;4.80;;;;;;;;;;5115584;28;20228;-71
2021/05/07 08:44:10;;;;;;;7.00;5.30;;;;;;;;;;5115740;28;20257;-70
2021/05/07 08:46:41;;;;;;;5.45;4.80;;;;;;;;;;5115777;28;20769;-70
2021/05/07 08:49:08;;;;;;;4.70;4.30;;;;;;;;;;5115731;28;20269;-70
2021/05/07 08:51:34;;;;;;;5.00;4.50;;;;;;;;;;5115223;28;20197;-70
2021/05/07 08:54:01;;;;;;;5.05;4.65;;;;;;;;;;5115540;28;20283;-70
2021/05/07 08:56:28;;;;;;;10.27;5.50;;;;;;;;;;5115138;28;20722;-70
2021/05/07 08:58:54;;;;;;;6.25;5.20;;;;;;;;;;5115028;28;20297;-70
2021/05/07 09:01:21;;;;;;;5.95;5.35;;;;;;;;;;5115741;28;20200;-70
2021/05/07 09:03:49;;;;;;;5.93;5.43;;;;;;;;;;5115154;28;20225;-70
2021/05/07 09:06:16;;;;;;;7.95;6.57;;;;;;;;;;5115417;28;20206;-70
2021/05/07 09:08:43;;;;;;;8.13;6.78;;;;;;;;;;5115262;28;20314;-71
2021/05/07 09:11:10;;;;;;;9.15;6.60;;;;;;;;;;5115596;28;20546;-71
2021/05/07 09:13:36;;;;;;;6.03;5.43;;;;;;;;;;5114845;28;20193;-70
2021/05/07 09:16:07;;;;;;;7.50;6.72;;;;;;;;;;5115411;28;20200;-71
2021/05/07 09:18:43;;;;;;;7.18;6.47;;;;;;;;;;5115055;28;20231;-70
2021/05/07 09:21:11;;;;;;;6.07;5.00;;;;;;;;;;5114573;28;20190;-70
2021/05/07 09:23:41;;;;;;;6.80;6.10;;;;;;;;;;5114435;28;20737;-70
2021/05/07 09:26:08;;;;;;;6.10;5.60;;;;;;;;;;5115266;28;20277;-70
2021/05/07 09:28:35;;;;;;;5.88;5.35;;;;;;;;;;5114446;28;20207;-70
2021/05/07 09:31:11;;;;;;;9.88;5.20;;;;;;;;;;5114621;28;20264;-70
2021/05/07 09:33:41;;;;;;;7.00;6.25;;;;;;;;;;5114324;28;20288;-71
2021/05/07 09:36:08;;;;;;;7.05;6.35;;;;;;;;;;5114194;28;20198;-70
2021/05/07 09:38:37;;;;;;;8.85;6.80;;;;;;;;;;5114503;28;20198;-71
2021/05/07 09:41:04;;;;;;;8.25;7.07;;;;;;;;;;5114308;28;20226;-70
2021/05/07 09:43:31;;;;;;;7.88;7.15;;;;;;;;;;5114546;28;20197;-70
2021/05/07 09:45:58;;;;;;;8.77;6.38;;;;;;;;;;5114073;28;20652;-70
2021/05/07 09:48:25;;;;;;;8.90;7.25;;;;;;;;;;5114082;28;20194;-70
2021/05/07 09:50:56;;;;;;;6.88;4.65;;;;;;;;;;5114567;28;20198;-70
2021/05/07 09:53:24;;;;;;;6.40;4.78;;;;;;;;;;5114668;28;20185;-70
2021/05/07 09:55:52;;;;;;;6.90;4.80;;;;;;;;;;5114299;28;20608;-70
2021/05/07 09:58:19;;;;;;;5.20;4.80;;;;;;;;;;5114199;28;20196;-70
2021/05/07 10:00:46;;;;;;;7.03;4.88;;;;;;;;;;5113781;28;20661;-70
2021/05/07 10:03:13;;;;;;;5.32;4.82;;;;;;;;;;5114197;28;20244;-70
2021/05/07 10:05:40;;;;;;;7.80;5.40;;;;;;;;;;5114059;28;20212;-70
2021/05/07 10:08:06;;;;;;;4.78;4.38;;;;;;;;;;5114168;28;20220;-70
2021/05/07 10:10:36;;;;;;;6.03;5.53;;;;;;;;;;5113893;28;20194;-70
2021/05/07 10:13:05;;;;;;;8.30;5.30;;;;;;;;;;5113855;28;20284;-70
2021/05/07 10:15:35;;;;;;;5.80;4.55;;;;;;;;;;5113935;28;20304;-70
2021/05/07 10:18:02;;;;;;;7.65;4.60;;;;;;;;;;5113558;28;20195;-70
2021/05/07 10:20:30;;;;;;;5.63;4.68;;;;;;;;;;5113499;28;20193;-70
2021/05/07 10:22:57;;;;;;;4.95;4.50;;;;;;;;;;5113428;28;20189;-70
2021/05/07 10:25:25;;;;;;;4.75;4.35;;;;;;;;;;5113394;28;20253;-70
2021/05/07 10:27:53;;;;;;;5.93;5.35;;;;;;;;;;5113379;28;20684;-70
2021/05/07 10:30:31;;;;;;;4.53;4.20;;;;;;;;;;5113776;28;20290;-70
2021/05/07 10:32:59;;;;;;;4.15;3.85;;;;;;;;;;5114357;28;20278;-70
2021/05/07 10:35:33;;;;;;;8.45;4.68;;;;;;;;;;5113841;28;20221;-70
2021/05/07 10:38:16;;;;;;;3.70;3.40;;;;;;;;;;5113640;28;20195;-70
2021/05/07 10:40:43;;;;;;;4.00;3.60;;;;;;;;;;5113037;28;20234;-70
2021/05/07 10:43:11;;;;;;;4.35;2.80;;;;;;;;;;5113961;28;20193;-70
2021/05/07 10:45:42;;;;;;;3.33;2.65;;;;;;;;;;5112989;28;20223;-70
2021/05/07 10:48:13;;;;;;;5.22;2.95;;;;;;;;;;5113044;28;20198;-70
2021/05/07 10:50:40;;;;;;;6.10;3.40;;;;;;;;;;5113179;28;20282;-70
2021/05/07 10:53:07;;;;;;;5.25;3.30;;;;;;;;;;5113385;28;20300;-69
2021/05/07 10:55:34;;;;;;;5.00;4.05;;;;;;;;;;5113372;28;20281;-71
2021/05/07 10:58:01;;;;;;;3.60;3.30;;;;;;;;;;5113345;28;20264;-70
2021/05/07 11:00:35;;;;;;;3.45;3.15;;;;;;;;;;5112889;28;20196;-70
2021/05/07 11:03:04;;;;;;;6.93;3.35;;;;;;;;;;5113105;28;20196;-70
2021/05/07 11:05:37;;;;;;;3.85;3.40;;;;;;;;;;5113140;28;20219;-69
2021/05/07 11:08:05;;;;;;;3.13;2.90;;;;;;;;;;5112837;28;20280;-70
2021/05/07 11:10:31;;;;;;;3.78;2.83;;;;;;;;;;5112982;28;20198;-69
2021/05/07 11:12:58;;;;;;;3.50;3.15;;;;;;;;;;5113541;28;20287;-70
2021/05/07 11:15:25;;;;;;;3.40;3.10;;;;;;;;;;5112913;28;20289;-70
2021/05/07 11:18:01;;;;;;;3.47;3.20;;;;;;;;;;5112859;28;20206;-69
2021/05/07 11:20:34;;;;;;;4.50;3.25;;;;;;;;;;5113230;28;20188;-69
2021/05/07 11:23:01;;;;;;;3.60;3.30;;;;;;;;;;5113548;28;20197;-69
2021/05/07 11:25:30;;;;;;;4.03;3.63;;;;;;;;;;5113311;28;20671;-69
2021/05/07 11:27:58;;;;;;;3.63;3.35;;;;;;;;;;5113193;28;20192;-69
2021/05/07 11:30:25;;;;;;;5.30;3.50;;;;;;;;;;5112769;28;20225;-69
2021/05/07 11:32:52;;;;;;;5.10;3.30;;;;;;;;;;5113024;28;20275;-69
2021/05/07 11:35:19;;;;;;;3.55;3.25;;;;;;;;;;5113511;28;20202;-70
2021/05/07 11:37:46;;;;;;;3.28;2.97;;;;;;;;;;5112832;28;20197;-69
2021/05/07 11:40:14;;;;;;;3.28;2.88;;;;;;;;;;5113689;28;20592;-70
2021/05/07 11:42:42;;;;;;;4.50;3.13;;;;;;;;;;5116815;28;20632;-68
2021/05/07 11:45:10;;;;;;;3.03;2.65;;;;;;;;;;5117004;28;20276;-69
2021/05/07 11:47:38;;;;;;;3.03;2.83;;;;;;;;;;5116509;28;20331;-69
2021/05/07 11:50:05;;;;;;;3.13;2.92;;;;;;;;;;5116482;28;20645;-69
2021/05/07 11:52:33;;;;;;;2.75;2.55;;;;;;;;;;5116771;28;20242;-69
2021/05/07 11:55:00;;;;;;;4.43;2.85;;;;;;;;;;5116479;28;20560;-69
2021/05/07 11:57:30;;;;;;;3.20;3.00;;;;;;;;;;5116369;28;20194;-69
2021/05/07 11:59:57;;;;;;;6.47;2.80;;;;;;;;;;5116316;28;20196;-70
2021/05/07 12:02:24;;;;;;;3.00;2.80;;;;;;;;;;5116374;28;20197;-69
2021/05/07 12:04:52;;;;;;;6.63;2.42;;;;;;;;;;5115977;28;20788;-69
2021/05/07 12:07:26;;;;;;;2.55;2.35;;;;;;;;;;5115953;28;20206;-70
2021/05/07 12:09:53;;;;;;;5.30;2.80;;;;;;;;;;5116157;28;20199;-69
2021/05/07 12:12:21;;;;;;;3.22;2.80;;;;;;;;;;5115777;28;20995;-69
2021/05/07 12:14:49;;;;;;;4.00;2.70;;;;;;;;;;5116007;28;20288;-69
2021/05/07 12:17:19;;;;;;;4.90;3.40;;;;;;;;;;5116114;28;20439;-69
2021/05/07 12:19:57;;;;;;;2.90;2.70;;;;;;;;;;5116706;28;20536;-69
2021/05/07 12:22:24;;;;;;;2.42;2.25;;;;;;;;;;5115724;28;20274;-69
2021/05/07 12:24:50;;;;;;;3.42;2.00;;;;;;;;;;5115747;28;20250;-69
2021/05/07 12:27:27;;;;;;;4.85;2.72;;;;;;;;;;5115642;28;20201;-69
2021/05/07 12:29:54;;;;;;;2.83;2.55;;;;;;;;;;5115784;28;20252;-69
2021/05/07 12:32:22;;;;;;;3.45;2.95;;;;;;;;;;5115719;28;20204;-69
2021/05/07 12:34:56;;;;;;;4.80;3.45;;;;;;;;;;5115972;28;20204;-70
2021/05/07 12:37:23;;;;;;;1.90;1.80;;;;;;;;;;5115743;28;20211;-69
2021/05/07 12:39:49;;;;;;;3.70;3.45;;;;;;;;;;5114958;28;20326;-70
2021/05/07 12:42:16;;;;;;;3.53;3.20;;;;;;;;;;5115910;28;20280;-69
2021/05/07 12:44:44;;;;;;;6.37;2.93;;;;;;;;;;5114917;28;20227;-64
2021/05/07 12:47:10;;;;;;;5.00;3.40;;;;;;;;;;5115122;28;20537;-66
2021/05/07 12:49:37;;;;;;;6.43;3.75;;;;;;;;;;5115319;28;20281;-67
2021/05/07 12:52:04;;;;;;;3.15;2.83;;;;;;;;;;5114339;28;20657;-66
2021/05/07 12:54:31;;;;;;;3.70;3.50;;;;;;;;;;5115394;28;20291;-67
2021/05/07 12:56:58;;;;;;;4.70;3.57;;;;;;;;;;5115201;28;20621;-67
2021/05/07 12:59:25;;;;;;;3.97;3.20;;;;;;;;;;5115802;28;20438;-67
2021/05/07 13:01:53;;;;;;;2.88;2.53;;;;;;;;;;5114637;28;20206;-67
2021/05/07 13:04:19;;;;;;;5.13;3.60;;;;;;;;;;5112091;28;20216;-66
2021/05/07 13:06:46;;;;;;;4.70;2.90;;;;;;;;;;5103376;28;20477;-67
2021/05/07 13:09:13;;;;;;;4.38;3.95;;;;;;;;;;5114698;28;20533;-67
2021/05/07 13:11:40;;;;;;;5.45;4.05;;;;;;;;;;5114505;28;20195;-67
2021/05/07 13:14:09;;;;;;;5.60;4.63;;;;;;;;;;5114660;28;20661;-68
2021/05/07 13:16:36;;;;;;;3.40;2.90;;;;;;;;;;5114607;28;20223;-68
2021/05/07 13:19:04;;;;;;;3.53;3.23;;;;;;;;;;5114907;28;20538;-68
2021/05/07 13:21:30;;;;;;;6.47;3.93;;;;;;;;;;5114737;28;20466;-68
2021/05/07 13:23:57;;;;;;;6.17;3.40;;;;;;;;;;5115097;28;20457;-68
2021/05/07 13:26:25;;;;;;;5.00;3.60;;;;;;;;;;5114705;28;20443;-67
2021/05/07 13:28:56;;;;;;;3.03;2.83;;;;;;;;;;5114891;28;20438;-67
2021/05/07 13:31:23;;;;;;;4.60;2.90;;;;;;;;;;5114579;28;20431;-67
2021/05/07 13:33:50;;;;;;;2.83;2.63;;;;;;;;;;5114830;28;20884;-67
2021/05/07 13:36:18;;;;;;;2.33;2.03;;;;;;;;;;5114551;28;20900;-68
2021/05/07 13:38:46;;;;;;;2.40;2.17;;;;;;;;;;5114374;28;20446;-67
2021/05/07 13:41:12;;;;;;;1.93;1.83;;;;;;;;;;5114597;28;20885;-67
2021/05/07 13:43:39;;;;;;;3.80;2.03;;;;;;;;;;5114741;28;20881;-67
2021/05/07 13:46:06;;;;;;;2.30;2.10;;;;;;;;;;5114348;28;20491;-67
2021/05/07 13:48:34;;;;;;;2.90;2.10;;;;;;;;;;5114151;28;20935;-67
2021/05/07 13:51:00;;;;;;;2.33;1.73;;;;;;;;;;5114173;28;20950;-68
2021/05/07 13:53:28;;;;;;;2.63;2.27;;;;;;;;;;5114015;28;20525;-67
2021/05/07 13:55:55;;;;;;;2.23;2.03;;;;;;;;;;5114367;28;20784;-68
2021/05/07 13:58:21;;;;;;;4.50;2.50;;;;;;;;;;5114115;28;20439;-68
2021/05/07 14:00:48;;;;;;;2.40;2.20;;;;;;;;;;5114436;28;20789;-68
2021/05/07 14:03:15;;;;;;;1.73;1.63;;;;;;;;;;5113523;28;20483;-67
2021/05/07 14:05:42;;;;;;;2.10;2.00;;;;;;;;;;5113617;28;20475;-67
2021/05/07 14:08:09;;;;;;;5.83;2.80;;;;;;;;;;5113878;28;20438;-68
2021/05/07 14:10:36;;;;;;;2.40;2.20;;;;;;;;;;5114216;28;20443;-68
2021/05/07 14:13:03;;;;;;;2.33;1.83;;;;;;;;;;5114142;28;20529;-68
2021/05/07 14:15:30;;;;;;;4.13;1.77;;;;;;;;;;5113671;28;20468;-67
2021/05/07 14:17:57;;;;;;;2.33;2.00;;;;;;;;;;5113839;28;20911;-68
2021/05/07 14:20:24;;;;;;;2.33;2.23;;;;;;;;;;5114021;28;20525;-68
2021/05/07 14:22:50;;;;;;;2.17;1.98;;;;;;;;;;5114004;28;20449;-67
2021/05/07 14:25:17;;;;;;;5.60;2.03;;;;;;;;;;5114136;28;20304;-68
2021/05/07 14:27:45;;;;;;;2.20;2.00;;;;;;;;;;5113580;28;20941;-68
2021/05/07 14:30:15;;;;;;;3.00;2.70;;;;;;;;;;5113998;28;20446;-68